This is the latest recevied weather packets stored in our database for station/object K0WXC-1. If no packets are shown the sender has not sent any weather packets the latest 10 day(s).
| Time | Temp. | Humidity | Pressure | Rain* | Wind** | Luminosity | Snow |
|---|---|---|---|---|---|---|---|
| 1777237108 | 24.44° C | 44% | 996.1 hPa | 0 mm | 4.92 m/s, 101° | - | - |
| 1777237048 | 24.44° C | 44% | 996.1 hPa | 0 mm | 4.92 m/s, 101° | - | - |
| 1777236988 | 24.44° C | 44% | 996.1 hPa | 0 mm | 4.92 m/s, 101° | - | - |
| 1777236928 | 24.44° C | 44% | 996.4 hPa | 0 mm | 2.68 m/s, 70° | - | - |
| 1777236868 | 24.44° C | 44% | 996.4 hPa | 0 mm | 2.68 m/s, 70° | - | - |
| 1777236808 | 24.44° C | 44% | 996.4 hPa | 0 mm | 2.68 m/s, 70° | - | - |
| 1777236748 | 24.44° C | 44% | 996.4 hPa | 0 mm | 2.68 m/s, 70° | - | - |
| 1777236688 | 24.44° C | 44% | 996.4 hPa | 0 mm | 2.68 m/s, 70° | - | - |
| 1777236628 | 24.44° C | 44% | 996.5 hPa | 0 mm | 4.47 m/s, 141° | - | - |
| 1777236568 | 24.44° C | 44% | 996.5 hPa | 0 mm | 4.47 m/s, 141° | - | - |
| 1777236508 | 24.44° C | 44% | 996.5 hPa | 0 mm | 4.47 m/s, 141° | - | - |
| 1777236448 | 24.44° C | 44% | 996.5 hPa | 0 mm | 4.47 m/s, 141° | - | - |
| 1777236388 | 24.44° C | 44% | 996.5 hPa | 0 mm | 4.47 m/s, 141° | - | - |
| 1777236328 | 24.44° C | 43% | 996.5 hPa | 0 mm | 6.26 m/s, 131° | - | - |
| 1777236269 | 24.44° C | 43% | 996.5 hPa | 0 mm | 6.26 m/s, 131° | - | - |
| 1777236208 | 24.44° C | 43% | 996.5 hPa | 0 mm | 6.26 m/s, 131° | - | - |
| 1777236148 | 24.44° C | 43% | 996.5 hPa | 0 mm | 6.26 m/s, 131° | - | - |
| 1777236088 | 24.44° C | 43% | 996.5 hPa | 0 mm | 6.26 m/s, 131° | - | - |
| 1777236028 | 24.44° C | 44% | 996.6 hPa | 0 mm | 4.02 m/s, 136° | - | - |
| 1777235968 | 24.44° C | 44% | 996.6 hPa | 0 mm | 4.02 m/s, 136° | - | - |
| 1777235908 | 24.44° C | 44% | 996.6 hPa | 0 mm | 4.02 m/s, 136° | - | - |
| 1777235848 | 24.44° C | 44% | 996.6 hPa | 0 mm | 4.02 m/s, 136° | - | - |
| 1777235788 | 24.44° C | 44% | 996.6 hPa | 0 mm | 4.02 m/s, 136° | - | - |
| 1777235728 | 24.44° C | 45% | 996.5 hPa | 0 mm | 2.24 m/s, 96° | - | - |
| 1777235668 | 24.44° C | 45% | 996.5 hPa | 0 mm | 2.24 m/s, 96° | - | - |
* Rain latest hour (hover to see other rain measurements)
** Current wind speed in m/s (hover to see current wind gust speed)